Terminal Aerodrome Forecast
Issued by NWS

Home | Current Version | Previous Version | Text Only | Print | Product List | Glossary Off
Versions: 1 2 3 4 5 6 7 8 9 10 11 12 13 14 15

000
FTUS43 KGRB 211727
TAFCWA
TAF
KCWA 211727Z 2118/2218 27010KT P6SM VCSH BKN090
     FM212100 30010KT P6SM SCT080
     FM220100 33007KT P6SM SKC
     FM220300 VRB02KT P6SM SKC
     FM221500 29005KT P6SM SKC=

USA.gov is the U.S. government's official web portal to all federal, state and local government web resources and services.